sensor_id;sensor_type;location;lat;lon;timestamp;P1;durP1;ratioP1;P2;durP2;ratioP2
68050;SDS011;54839;51.364;7.246;2022-10-16T00:01:19;3.03;;;2.50;;
68050;SDS011;54839;51.364;7.246;2022-10-16T00:03:46;7.00;;;3.10;;
68050;SDS011;54839;51.364;7.246;2022-10-16T00:06:13;5.03;;;2.60;;
68050;SDS011;54839;51.364;7.246;2022-10-16T00:08:40;5.70;;;2.23;;
68050;SDS011;54839;51.364;7.246;2022-10-16T00:11:08;7.30;;;2.87;;
68050;SDS011;54839;51.364;7.246;2022-10-16T00:13:35;3.13;;;2.93;;
68050;SDS011;54839;51.364;7.246;2022-10-16T00:16:02;5.60;;;2.63;;
68050;SDS011;54839;51.364;7.246;2022-10-16T00:18:28;6.30;;;2.90;;
68050;SDS011;54839;51.364;7.246;2022-10-16T00:20:55;3.60;;;2.40;;
68050;SDS011;54839;51.364;7.246;2022-10-16T00:23:25;3.30;;;2.50;;
68050;SDS011;54839;51.364;7.246;2022-10-16T00:25:58;2.67;;;2.47;;
68050;SDS011;54839;51.364;7.246;2022-10-16T00:28:26;2.30;;;2.10;;
68050;SDS011;54839;51.364;7.246;2022-10-16T00:30:52;5.43;;;2.70;;
68050;SDS011;54839;51.364;7.246;2022-10-16T00:33:18;2.93;;;2.40;;
68050;SDS011;54839;51.364;7.246;2022-10-16T00:35:44;3.03;;;2.10;;
68050;SDS011;54839;51.364;7.246;2022-10-16T00:38:10;3.60;;;2.00;;
68050;SDS011;54839;51.364;7.246;2022-10-16T00:40:35;3.83;;;2.43;;
68050;SDS011;54839;51.364;7.246;2022-10-16T00:43:01;3.13;;;2.20;;
68050;SDS011;54839;51.364;7.246;2022-10-16T00:45:26;2.83;;;2.60;;
68050;SDS011;54839;51.364;7.246;2022-10-16T00:47:52;2.10;;;1.93;;
68050;SDS011;54839;51.364;7.246;2022-10-16T00:52:51;4.13;;;2.73;;
68050;SDS011;54839;51.364;7.246;2022-10-16T00:55:17;7.37;;;2.77;;
68050;SDS011;54839;51.364;7.246;2022-10-16T00:57:44;4.73;;;2.90;;
68050;SDS011;54839;51.364;7.246;2022-10-16T01:00:11;2.50;;;2.20;;
68050;SDS011;54839;51.364;7.246;2022-10-16T01:02:39;2.60;;;2.40;;
68050;SDS011;54839;51.364;7.246;2022-10-16T01:05:04;4.70;;;2.40;;
68050;SDS011;54839;51.364;7.246;2022-10-16T01:07:45;2.77;;;2.57;;
68050;SDS011;54839;51.364;7.246;2022-10-16T01:10:27;2.93;;;2.10;;
68050;SDS011;54839;51.364;7.246;2022-10-16T01:21:04;2.57;;;2.37;;
68050;SDS011;54839;51.364;7.246;2022-10-16T01:23:51;3.60;;;3.07;;
68050;SDS011;54839;51.364;7.246;2022-10-16T01:32:11;6.83;;;2.73;;
68050;SDS011;54839;51.364;7.246;2022-10-16T01:34:52;3.63;;;2.33;;
68050;SDS011;54839;51.364;7.246;2022-10-16T01:37:32;3.33;;;2.40;;
68050;SDS011;54839;51.364;7.246;2022-10-16T01:40:05;4.83;;;2.77;;
68050;SDS011;54839;51.364;7.246;2022-10-16T01:42:36;4.07;;;2.60;;
68050;SDS011;54839;51.364;7.246;2022-10-16T01:45:18;2.50;;;2.30;;
68050;SDS011;54839;51.364;7.246;2022-10-16T01:47:45;2.93;;;2.53;;
68050;SDS011;54839;51.364;7.246;2022-10-16T01:50:12;2.30;;;2.10;;
68050;SDS011;54839;51.364;7.246;2022-10-16T01:52:41;3.73;;;2.40;;
68050;SDS011;54839;51.364;7.246;2022-10-16T01:55:12;3.33;;;2.10;;
68050;SDS011;54839;51.364;7.246;2022-10-16T01:57:43;2.70;;;2.50;;
68050;SDS011;54839;51.364;7.246;2022-10-16T02:00:12;2.53;;;2.33;;
68050;SDS011;54839;51.364;7.246;2022-10-16T02:02:40;6.27;;;2.23;;
68050;SDS011;54839;51.364;7.246;2022-10-16T02:05:10;2.20;;;2.10;;
68050;SDS011;54839;51.364;7.246;2022-10-16T02:07:41;2.43;;;2.23;;
68050;SDS011;54839;51.364;7.246;2022-10-16T02:10:07;2.73;;;2.53;;
68050;SDS011;54839;51.364;7.246;2022-10-16T02:12:34;2.90;;;1.90;;
68050;SDS011;54839;51.364;7.246;2022-10-16T02:15:02;3.13;;;1.70;;
68050;SDS011;54839;51.364;7.246;2022-10-16T02:17:28;4.83;;;2.50;;
68050;SDS011;54839;51.364;7.246;2022-10-16T02:19:54;1.90;;;1.80;;
68050;SDS011;54839;51.364;7.246;2022-10-16T02:22:23;1.90;;;1.70;;
68050;SDS011;54839;51.364;7.246;2022-10-16T02:27:27;12.50;;;2.73;;
68050;SDS011;54839;51.364;7.246;2022-10-16T02:30:00;2.30;;;2.10;;
68050;SDS011;54839;51.364;7.246;2022-10-16T02:32:33;2.23;;;2.00;;
68050;SDS011;54839;51.364;7.246;2022-10-16T02:35:00;6.70;;;2.20;;
68050;SDS011;54839;51.364;7.246;2022-10-16T02:37:27;3.60;;;2.17;;
68050;SDS011;54839;51.364;7.246;2022-10-16T02:39:53;6.43;;;2.10;;
68050;SDS011;54839;51.364;7.246;2022-10-16T02:42:20;2.53;;;2.10;;
68050;SDS011;54839;51.364;7.246;2022-10-16T02:44:45;2.30;;;2.13;;
68050;SDS011;54839;51.364;7.246;2022-10-16T02:47:11;2.53;;;2.33;;
68050;SDS011;54839;51.364;7.246;2022-10-16T02:49:37;2.33;;;1.77;;
68050;SDS011;54839;51.364;7.246;2022-10-16T02:52:03;3.53;;;2.40;;
68050;SDS011;54839;51.364;7.246;2022-10-16T02:54:28;3.53;;;2.00;;
68050;SDS011;54839;51.364;7.246;2022-10-16T02:56:54;2.47;;;1.60;;
68050;SDS011;54839;51.364;7.246;2022-10-16T02:59:19;1.97;;;1.77;;
68050;SDS011;54839;51.364;7.246;2022-10-16T03:01:45;2.50;;;2.23;;
68050;SDS011;54839;51.364;7.246;2022-10-16T03:04:10;2.20;;;2.10;;
68050;SDS011;54839;51.364;7.246;2022-10-16T03:06:36;2.40;;;1.90;;
68050;SDS011;54839;51.364;7.246;2022-10-16T03:09:01;4.07;;;2.03;;
68050;SDS011;54839;51.364;7.246;2022-10-16T03:11:27;2.87;;;1.83;;
68050;SDS011;54839;51.364;7.246;2022-10-16T03:13:53;3.37;;;2.10;;
68050;SDS011;54839;51.364;7.246;2022-10-16T03:16:18;4.00;;;2.70;;
68050;SDS011;54839;51.364;7.246;2022-10-16T03:18:47;3.00;;;1.90;;
68050;SDS011;54839;51.364;7.246;2022-10-16T03:21:14;2.53;;;2.10;;
68050;SDS011;54839;51.364;7.246;2022-10-16T03:23:40;1.83;;;1.73;;
68050;SDS011;54839;51.364;7.246;2022-10-16T03:26:05;4.70;;;1.70;;
68050;SDS011;54839;51.364;7.246;2022-10-16T03:28:31;1.50;;;1.40;;
68050;SDS011;54839;51.364;7.246;2022-10-16T03:30:56;2.87;;;1.63;;
68050;SDS011;54839;51.364;7.246;2022-10-16T03:33:22;3.20;;;1.70;;
68050;SDS011;54839;51.364;7.246;2022-10-16T03:35:51;4.33;;;1.90;;
68050;SDS011;54839;51.364;7.246;2022-10-16T03:38:18;1.70;;;1.60;;
68050;SDS011;54839;51.364;7.246;2022-10-16T03:40:43;1.63;;;1.20;;
68050;SDS011;54839;51.364;7.246;2022-10-16T03:43:09;1.43;;;1.33;;
68050;SDS011;54839;51.364;7.246;2022-10-16T03:45:34;1.60;;;1.30;;
68050;SDS011;54839;51.364;7.246;2022-10-16T03:48:00;1.70;;;1.60;;
68050;SDS011;54839;51.364;7.246;2022-10-16T03:50:27;2.87;;;1.40;;
68050;SDS011;54839;51.364;7.246;2022-10-16T03:52:52;2.43;;;1.30;;
68050;SDS011;54839;51.364;7.246;2022-10-16T03:55:18;5.50;;;1.60;;
68050;SDS011;54839;51.364;7.246;2022-10-16T03:57:43;2.50;;;1.70;;
68050;SDS011;54839;51.364;7.246;2022-10-16T04:00:09;1.80;;;1.43;;
68050;SDS011;54839;51.364;7.246;2022-10-16T04:02:35;1.27;;;1.17;;
68050;SDS011;54839;51.364;7.246;2022-10-16T04:05:01;1.70;;;1.60;;
68050;SDS011;54839;51.364;7.246;2022-10-16T04:07:26;4.43;;;1.90;;
68050;SDS011;54839;51.364;7.246;2022-10-16T04:09:52;1.90;;;1.63;;
68050;SDS011;54839;51.364;7.246;2022-10-16T04:12:18;1.83;;;1.73;;
68050;SDS011;54839;51.364;7.246;2022-10-16T04:14:43;1.93;;;1.47;;
68050;SDS011;54839;51.364;7.246;2022-10-16T04:17:09;1.70;;;1.60;;
68050;SDS011;54839;51.364;7.246;2022-10-16T04:19:34;1.90;;;1.40;;
68050;SDS011;54839;51.364;7.246;2022-10-16T04:22:00;7.20;;;1.90;;
68050;SDS011;54839;51.364;7.246;2022-10-16T04:24:25;2.53;;;1.40;;
68050;SDS011;54839;51.364;7.246;2022-10-16T04:28:07;1.90;;;1.80;;
68050;SDS011;54839;51.364;7.246;2022-10-16T04:30:33;1.60;;;1.50;;
68050;SDS011;54839;51.364;7.246;2022-10-16T04:32:58;4.33;;;1.47;;
68050;SDS011;54839;51.364;7.246;2022-10-16T04:35:24;1.60;;;1.50;;
68050;SDS011;54839;51.364;7.246;2022-10-16T04:37:49;2.60;;;1.40;;
68050;SDS011;54839;51.364;7.246;2022-10-16T04:40:15;4.23;;;1.23;;
68050;SDS011;54839;51.364;7.246;2022-10-16T04:42:41;2.50;;;1.70;;
68050;SDS011;54839;51.364;7.246;2022-10-16T04:45:07;1.50;;;1.40;;
68050;SDS011;54839;51.364;7.246;2022-10-16T04:47:33;1.57;;;1.30;;
68050;SDS011;54839;51.364;7.246;2022-10-16T04:49:59;1.40;;;1.30;;
68050;SDS011;54839;51.364;7.246;2022-10-16T04:52:26;1.67;;;1.57;;
68050;SDS011;54839;51.364;7.246;2022-10-16T04:54:51;1.37;;;1.27;;
68050;SDS011;54839;51.364;7.246;2022-10-16T04:57:17;1.40;;;1.27;;
68050;SDS011;54839;51.364;7.246;2022-10-16T04:59:42;1.67;;;1.57;;
68050;SDS011;54839;51.364;7.246;2022-10-16T05:02:08;1.37;;;1.27;;
68050;SDS011;54839;51.364;7.246;2022-10-16T05:04:33;1.70;;;1.60;;
68050;SDS011;54839;51.364;7.246;2022-10-16T05:06:59;1.20;;;1.10;;
68050;SDS011;54839;51.364;7.246;2022-10-16T05:09:24;7.00;;;1.30;;
68050;SDS011;54839;51.364;7.246;2022-10-16T05:11:50;1.90;;;1.80;;
68050;SDS011;54839;51.364;7.246;2022-10-16T05:14:15;1.60;;;1.50;;
68050;SDS011;54839;51.364;7.246;2022-10-16T05:16:41;2.50;;;1.70;;
68050;SDS011;54839;51.364;7.246;2022-10-16T05:19:07;2.30;;;1.53;;
68050;SDS011;54839;51.364;7.246;2022-10-16T05:21:32;1.63;;;1.53;;
68050;SDS011;54839;51.364;7.246;2022-10-16T05:23:58;1.57;;;1.47;;
68050;SDS011;54839;51.364;7.246;2022-10-16T05:26:23;1.70;;;1.60;;
68050;SDS011;54839;51.364;7.246;2022-10-16T05:28:49;2.10;;;1.47;;
68050;SDS011;54839;51.364;7.246;2022-10-16T05:31:15;1.60;;;1.50;;
68050;SDS011;54839;51.364;7.246;2022-10-16T05:33:40;2.40;;;1.93;;
68050;SDS011;54839;51.364;7.246;2022-10-16T05:36:07;2.00;;;1.83;;
68050;SDS011;54839;51.364;7.246;2022-10-16T05:38:37;2.20;;;1.87;;
68050;SDS011;54839;51.364;7.246;2022-10-16T05:41:03;1.97;;;1.70;;
68050;SDS011;54839;51.364;7.246;2022-10-16T05:43:30;2.03;;;1.60;;
68050;SDS011;54839;51.364;7.246;2022-10-16T05:46:00;2.50;;;2.17;;
68050;SDS011;54839;51.364;7.246;2022-10-16T05:48:29;2.00;;;1.90;;
68050;SDS011;54839;51.364;7.246;2022-10-16T05:50:56;2.80;;;2.60;;
68050;SDS011;54839;51.364;7.246;2022-10-16T05:53:23;3.13;;;2.93;;
68050;SDS011;54839;51.364;7.246;2022-10-16T05:55:56;2.27;;;2.07;;
68050;SDS011;54839;51.364;7.246;2022-10-16T05:58:22;1.97;;;1.63;;
68050;SDS011;54839;51.364;7.246;2022-10-16T06:00:59;2.03;;;1.83;;
68050;SDS011;54839;51.364;7.246;2022-10-16T06:03:27;3.13;;;2.83;;
68050;SDS011;54839;51.364;7.246;2022-10-16T06:05:52;2.60;;;2.27;;
68050;SDS011;54839;51.364;7.246;2022-10-16T06:08:19;3.37;;;2.97;;
68050;SDS011;54839;51.364;7.246;2022-10-16T06:10:46;2.37;;;2.23;;
68050;SDS011;54839;51.364;7.246;2022-10-16T06:13:12;3.27;;;2.23;;
68050;SDS011;54839;51.364;7.246;2022-10-16T06:15:39;3.90;;;2.20;;
68050;SDS011;54839;51.364;7.246;2022-10-16T06:18:09;3.33;;;2.00;;
68050;SDS011;54839;51.364;7.246;2022-10-16T06:20:35;2.20;;;2.07;;
68050;SDS011;54839;51.364;7.246;2022-10-16T06:23:01;2.93;;;1.90;;
68050;SDS011;54839;51.364;7.246;2022-10-16T06:25:28;2.60;;;1.80;;
68050;SDS011;54839;51.364;7.246;2022-10-16T06:27:55;1.63;;;1.53;;
68050;SDS011;54839;51.364;7.246;2022-10-16T06:30:20;1.70;;;1.60;;
68050;SDS011;54839;51.364;7.246;2022-10-16T06:32:46;1.70;;;1.60;;
68050;SDS011;54839;51.364;7.246;2022-10-16T06:35:11;2.10;;;1.90;;
68050;SDS011;54839;51.364;7.246;2022-10-16T06:37:37;1.90;;;1.80;;
68050;SDS011;54839;51.364;7.246;2022-10-16T06:40:02;2.20;;;2.07;;
68050;SDS011;54839;51.364;7.246;2022-10-16T06:42:29;1.90;;;1.80;;
68050;SDS011;54839;51.364;7.246;2022-10-16T06:44:55;3.50;;;1.93;;
68050;SDS011;54839;51.364;7.246;2022-10-16T06:47:20;2.23;;;2.00;;
68050;SDS011;54839;51.364;7.246;2022-10-16T06:49:46;3.27;;;1.67;;
68050;SDS011;54839;51.364;7.246;2022-10-16T06:52:11;3.73;;;3.43;;
68050;SDS011;54839;51.364;7.246;2022-10-16T06:54:37;9.53;;;2.10;;
68050;SDS011;54839;51.364;7.246;2022-10-16T06:57:02;4.27;;;2.17;;
68050;SDS011;54839;51.364;7.246;2022-10-16T06:59:28;2.60;;;2.40;;
68050;SDS011;54839;51.364;7.246;2022-10-16T07:01:53;7.77;;;2.20;;
68050;SDS011;54839;51.364;7.246;2022-10-16T07:04:19;2.10;;;1.90;;
68050;SDS011;54839;51.364;7.246;2022-10-16T07:06:44;1.53;;;1.43;;
68050;SDS011;54839;51.364;7.246;2022-10-16T07:09:10;2.47;;;1.80;;
68050;SDS011;54839;51.364;7.246;2022-10-16T07:11:37;2.00;;;1.43;;
68050;SDS011;54839;51.364;7.246;2022-10-16T07:14:05;3.97;;;1.50;;
68050;SDS011;54839;51.364;7.246;2022-10-16T07:16:43;2.63;;;2.00;;
68050;SDS011;54839;51.364;7.246;2022-10-16T07:19:09;3.30;;;1.40;;
68050;SDS011;54839;51.364;7.246;2022-10-16T07:21:36;3.73;;;1.73;;
68050;SDS011;54839;51.364;7.246;2022-10-16T07:24:03;2.50;;;1.90;;
68050;SDS011;54839;51.364;7.246;2022-10-16T07:26:36;3.87;;;1.70;;
68050;SDS011;54839;51.364;7.246;2022-10-16T07:29:03;2.03;;;1.80;;
68050;SDS011;54839;51.364;7.246;2022-10-16T07:31:36;1.70;;;1.60;;
68050;SDS011;54839;51.364;7.246;2022-10-16T07:34:01;6.80;;;1.90;;
68050;SDS011;54839;51.364;7.246;2022-10-16T07:36:27;5.33;;;2.23;;
68050;SDS011;54839;51.364;7.246;2022-10-16T07:38:52;4.70;;;2.37;;
68050;SDS011;54839;51.364;7.246;2022-10-16T07:41:18;3.20;;;2.00;;
68050;SDS011;54839;51.364;7.246;2022-10-16T07:43:45;2.93;;;2.20;;
68050;SDS011;54839;51.364;7.246;2022-10-16T07:46:12;2.03;;;1.93;;
68050;SDS011;54839;51.364;7.246;2022-10-16T07:48:38;2.33;;;1.70;;
68050;SDS011;54839;51.364;7.246;2022-10-16T07:51:04;2.03;;;1.93;;
68050;SDS011;54839;51.364;7.246;2022-10-16T07:53:31;3.20;;;1.90;;
68050;SDS011;54839;51.364;7.246;2022-10-16T07:56:01;2.47;;;1.90;;
68050;SDS011;54839;51.364;7.246;2022-10-16T07:58:29;2.73;;;2.13;;
68050;SDS011;54839;51.364;7.246;2022-10-16T08:00:55;1.70;;;1.60;;
68050;SDS011;54839;51.364;7.246;2022-10-16T08:03:21;2.23;;;2.03;;
68050;SDS011;54839;51.364;7.246;2022-10-16T08:05:46;2.77;;;1.87;;
68050;SDS011;54839;51.364;7.246;2022-10-16T08:08:13;1.90;;;1.70;;
68050;SDS011;54839;51.364;7.246;2022-10-16T08:10:39;4.03;;;2.07;;
68050;SDS011;54839;51.364;7.246;2022-10-16T08:13:05;2.20;;;2.00;;
68050;SDS011;54839;51.364;7.246;2022-10-16T08:15:30;3.10;;;2.17;;
68050;SDS011;54839;51.364;7.246;2022-10-16T08:18:00;4.27;;;1.93;;
68050;SDS011;54839;51.364;7.246;2022-10-16T08:20:27;10.67;;;2.00;;
68050;SDS011;54839;51.364;7.246;2022-10-16T08:22:54;2.27;;;1.90;;
68050;SDS011;54839;51.364;7.246;2022-10-16T08:25:20;1.53;;;1.43;;
68050;SDS011;54839;51.364;7.246;2022-10-16T08:27:46;1.70;;;1.60;;
68050;SDS011;54839;51.364;7.246;2022-10-16T08:30:12;3.00;;;2.07;;
68050;SDS011;54839;51.364;7.246;2022-10-16T08:32:38;2.67;;;2.27;;
68050;SDS011;54839;51.364;7.246;2022-10-16T08:35:04;2.10;;;1.70;;
68050;SDS011;54839;51.364;7.246;2022-10-16T08:37:30;2.93;;;1.57;;
68050;SDS011;54839;51.364;7.246;2022-10-16T08:39:56;7.60;;;2.30;;
68050;SDS011;54839;51.364;7.246;2022-10-16T08:42:26;1.87;;;1.70;;
68050;SDS011;54839;51.364;7.246;2022-10-16T08:47:45;3.67;;;1.87;;
68050;SDS011;54839;51.364;7.246;2022-10-16T08:50:36;1.70;;;1.47;;
68050;SDS011;54839;51.364;7.246;2022-10-16T08:53:04;2.80;;;1.60;;
68050;SDS011;54839;51.364;7.246;2022-10-16T08:55:33;3.10;;;2.13;;
68050;SDS011;54839;51.364;7.246;2022-10-16T08:58:13;1.83;;;1.60;;
68050;SDS011;54839;51.364;7.246;2022-10-16T09:00:45;4.10;;;1.40;;
68050;SDS011;54839;51.364;7.246;2022-10-16T09:03:24;2.00;;;1.00;;
68050;SDS011;54839;51.364;7.246;2022-10-16T09:20:19;2.13;;;1.20;;
68050;SDS011;54839;51.364;7.246;2022-10-16T09:22:55;3.03;;;1.90;;
68050;SDS011;54839;51.364;7.246;2022-10-16T09:25:35;2.40;;;1.20;;
68050;SDS011;54839;51.364;7.246;2022-10-16T09:28:01;2.77;;;1.43;;
68050;SDS011;54839;51.364;7.246;2022-10-16T09:30:27;5.20;;;1.20;;
68050;SDS011;54839;51.364;7.246;2022-10-16T09:32:57;2.90;;;1.37;;
68050;SDS011;54839;51.364;7.246;2022-10-16T09:35:30;4.90;;;1.60;;
68050;SDS011;54839;51.364;7.246;2022-10-16T09:38:00;2.53;;;1.47;;
68050;SDS011;54839;51.364;7.246;2022-10-16T09:40:30;1.20;;;1.10;;
68050;SDS011;54839;51.364;7.246;2022-10-16T09:43:20;2.10;;;1.10;;
68050;SDS011;54839;51.364;7.246;2022-10-16T09:45:57;2.30;;;1.10;;
68050;SDS011;54839;51.364;7.246;2022-10-16T09:48:23;4.00;;;1.57;;
68050;SDS011;54839;51.364;7.246;2022-10-16T09:50:55;1.40;;;1.30;;
68050;SDS011;54839;51.364;7.246;2022-10-16T09:53:38;2.63;;;1.33;;
68050;SDS011;54839;51.364;7.246;2022-10-16T09:56:10;3.40;;;1.37;;
68050;SDS011;54839;51.364;7.246;2022-10-16T09:58:41;1.43;;;1.10;;
68050;SDS011;54839;51.364;7.246;2022-10-16T10:01:12;3.00;;;1.37;;
68050;SDS011;54839;51.364;7.246;2022-10-16T10:03:40;1.73;;;1.27;;
68050;SDS011;54839;51.364;7.246;2022-10-16T10:06:17;2.77;;;1.80;;
68050;SDS011;54839;51.364;7.246;2022-10-16T10:08:57;4.73;;;2.17;;
68050;SDS011;54839;51.364;7.246;2022-10-16T10:16:47;3.50;;;1.40;;
68050;SDS011;54839;51.364;7.246;2022-10-16T10:19:17;2.10;;;1.20;;
68050;SDS011;54839;51.364;7.246;2022-10-16T10:21:46;3.23;;;1.23;;
68050;SDS011;54839;51.364;7.246;2022-10-16T10:24:13;2.67;;;1.50;;
68050;SDS011;54839;51.364;7.246;2022-10-16T10:26:41;1.30;;;1.20;;
68050;SDS011;54839;51.364;7.246;2022-10-16T10:32:19;3.30;;;1.13;;
68050;SDS011;54839;51.364;7.246;2022-10-16T10:35:13;5.47;;;1.70;;
68050;SDS011;54839;51.364;7.246;2022-10-16T10:38:00;1.90;;;1.33;;
68050;SDS011;54839;51.364;7.246;2022-10-16T10:40:39;6.10;;;2.30;;
68050;SDS011;54839;51.364;7.246;2022-10-16T10:45:52;1.90;;;1.20;;
68050;SDS011;54839;51.364;7.246;2022-10-16T10:48:46;4.13;;;0.83;;
68050;SDS011;54839;51.364;7.246;2022-10-16T10:54:42;2.03;;;1.30;;
68050;SDS011;54839;51.364;7.246;2022-10-16T10:57:21;1.70;;;1.50;;
68050;SDS011;54839;51.364;7.246;2022-10-16T11:02:50;3.40;;;1.37;;
68050;SDS011;54839;51.364;7.246;2022-10-16T11:05:41;2.60;;;1.47;;
68050;SDS011;54839;51.364;7.246;2022-10-16T11:08:20;4.50;;;1.53;;
68050;SDS011;54839;51.364;7.246;2022-10-16T11:10:58;4.00;;;1.83;;
68050;SDS011;54839;51.364;7.246;2022-10-16T11:13:35;1.57;;;1.27;;
68050;SDS011;54839;51.364;7.246;2022-10-16T11:16:12;1.13;;;1.03;;
68050;SDS011;54839;51.364;7.246;2022-10-16T11:19:28;2.40;;;1.10;;
68050;SDS011;54839;51.364;7.246;2022-10-16T11:21:27;2.17;;;1.30;;
68050;SDS011;54839;51.364;7.246;2022-10-16T11:24:22;1.73;;;1.30;;
68050;SDS011;54839;51.364;7.246;2022-10-16T11:26:56;1.57;;;0.80;;
68050;SDS011;54839;51.364;7.246;2022-10-16T11:29:33;4.20;;;1.63;;
68050;SDS011;54839;51.364;7.246;2022-10-16T11:32:06;2.70;;;1.30;;
68050;SDS011;54839;51.364;7.246;2022-10-16T11:34:55;2.07;;;1.00;;
68050;SDS011;54839;51.364;7.246;2022-10-16T11:37:30;5.10;;;1.53;;
68050;SDS011;54839;51.364;7.246;2022-10-16T11:40:16;0.80;;;0.80;;
68050;SDS011;54839;51.364;7.246;2022-10-16T11:42:50;4.00;;;1.67;;
68050;SDS011;54839;51.364;7.246;2022-10-16T11:51:14;8.10;;;2.87;;
68050;SDS011;54839;51.364;7.246;2022-10-16T11:53:51;0.97;;;0.77;;
68050;SDS011;54839;51.364;7.246;2022-10-16T11:56:26;2.47;;;1.00;;
68050;SDS011;54839;51.364;7.246;2022-10-16T11:58:55;1.93;;;1.20;;
68050;SDS011;54839;51.364;7.246;2022-10-16T12:01:41;3.07;;;1.10;;
68050;SDS011;54839;51.364;7.246;2022-10-16T12:06:50;3.13;;;1.23;;
68050;SDS011;54839;51.364;7.246;2022-10-16T12:09:26;3.33;;;1.10;;
68050;SDS011;54839;51.364;7.246;2022-10-16T12:11:56;2.60;;;0.90;;
68050;SDS011;54839;51.364;7.246;2022-10-16T12:16:57;1.73;;;0.90;;
68050;SDS011;54839;51.364;7.246;2022-10-16T12:19:25;2.93;;;0.90;;
68050;SDS011;54839;51.364;7.246;2022-10-16T12:21:55;7.47;;;1.23;;
68050;SDS011;54839;51.364;7.246;2022-10-16T12:24:38;1.00;;;0.67;;
68050;SDS011;54839;51.364;7.246;2022-10-16T12:27:28;3.83;;;1.53;;
68050;SDS011;54839;51.364;7.246;2022-10-16T12:29:57;2.00;;;1.10;;
68050;SDS011;54839;51.364;7.246;2022-10-16T12:32:30;2.13;;;0.83;;
68050;SDS011;54839;51.364;7.246;2022-10-16T12:34:59;3.10;;;0.70;;
68050;SDS011;54839;51.364;7.246;2022-10-16T12:37:26;3.17;;;0.93;;
68050;SDS011;54839;51.364;7.246;2022-10-16T12:39:56;2.47;;;0.90;;
68050;SDS011;54839;51.364;7.246;2022-10-16T12:44:51;1.83;;;1.13;;
68050;SDS011;54839;51.364;7.246;2022-10-16T12:49:52;3.53;;;1.00;;
68050;SDS011;54839;51.364;7.246;2022-10-16T12:52:23;1.87;;;1.13;;
68050;SDS011;54839;51.364;7.246;2022-10-16T12:54:58;1.20;;;0.50;;
68050;SDS011;54839;51.364;7.246;2022-10-16T12:57:29;2.00;;;0.67;;
68050;SDS011;54839;51.364;7.246;2022-10-16T13:00:20;2.50;;;0.70;;
68050;SDS011;54839;51.364;7.246;2022-10-16T13:07:00;1.57;;;1.03;;
68050;SDS011;54839;51.364;7.246;2022-10-16T13:09:17;3.33;;;0.70;;
68050;SDS011;54839;51.364;7.246;2022-10-16T13:12:25;2.63;;;1.00;;
68050;SDS011;54839;51.364;7.246;2022-10-16T13:15:16;2.73;;;1.00;;
68050;SDS011;54839;51.364;7.246;2022-10-16T13:18:13;2.73;;;0.70;;
68050;SDS011;54839;51.364;7.246;2022-10-16T13:24:12;2.13;;;0.80;;
68050;SDS011;54839;51.364;7.246;2022-10-16T13:29:24;0.63;;;0.40;;
68050;SDS011;54839;51.364;7.246;2022-10-16T13:31:59;2.40;;;0.80;;
68050;SDS011;54839;51.364;7.246;2022-10-16T13:34:26;2.53;;;0.63;;
68050;SDS011;54839;51.364;7.246;2022-10-16T13:36:53;2.73;;;0.73;;
68050;SDS011;54839;51.364;7.246;2022-10-16T13:39:23;2.20;;;0.87;;
68050;SDS011;54839;51.364;7.246;2022-10-16T13:42:05;3.57;;;0.87;;
68050;SDS011;54839;51.364;7.246;2022-10-16T13:44:42;0.80;;;0.60;;
68050;SDS011;54839;51.364;7.246;2022-10-16T13:47:24;1.07;;;0.60;;
68050;SDS011;54839;51.364;7.246;2022-10-16T13:52:31;0.80;;;0.80;;
68050;SDS011;54839;51.364;7.246;2022-10-16T13:54:57;2.67;;;0.80;;
68050;SDS011;54839;51.364;7.246;2022-10-16T13:57:23;1.57;;;0.60;;
68050;SDS011;54839;51.364;7.246;2022-10-16T13:59:50;3.80;;;0.97;;
68050;SDS011;54839;51.364;7.246;2022-10-16T14:02:21;1.40;;;0.60;;
68050;SDS011;54839;51.364;7.246;2022-10-16T14:04:52;1.57;;;0.80;;
68050;SDS011;54839;51.364;7.246;2022-10-16T14:07:21;1.70;;;1.10;;
68050;SDS011;54839;51.364;7.246;2022-10-16T14:09:50;1.80;;;0.80;;
68050;SDS011;54839;51.364;7.246;2022-10-16T14:12:17;1.70;;;1.20;;
68050;SDS011;54839;51.364;7.246;2022-10-16T14:14:43;3.00;;;1.07;;
68050;SDS011;54839;51.364;7.246;2022-10-16T14:17:15;1.33;;;0.87;;
68050;SDS011;54839;51.364;7.246;2022-10-16T14:19:48;2.80;;;1.30;;
68050;SDS011;54839;51.364;7.246;2022-10-16T14:22:32;4.93;;;1.30;;
68050;SDS011;54839;51.364;7.246;2022-10-16T14:25:24;1.30;;;0.90;;
68050;SDS011;54839;51.364;7.246;2022-10-16T14:30:54;1.80;;;0.93;;
68050;SDS011;54839;51.364;7.246;2022-10-16T14:33:31;4.23;;;0.90;;
68050;SDS011;54839;51.364;7.246;2022-10-16T14:36:03;3.87;;;0.90;;
68050;SDS011;54839;51.364;7.246;2022-10-16T14:38:39;3.03;;;1.23;;
68050;SDS011;54839;51.364;7.246;2022-10-16T14:41:06;1.30;;;1.20;;
68050;SDS011;54839;51.364;7.246;2022-10-16T14:43:33;2.20;;;1.63;;
68050;SDS011;54839;51.364;7.246;2022-10-16T14:46:01;2.20;;;1.53;;
68050;SDS011;54839;51.364;7.246;2022-10-16T14:48:30;1.83;;;1.20;;
68050;SDS011;54839;51.364;7.246;2022-10-16T14:50:56;3.90;;;1.60;;
68050;SDS011;54839;51.364;7.246;2022-10-16T14:53:21;2.80;;;1.20;;
68050;SDS011;54839;51.364;7.246;2022-10-16T14:55:47;4.30;;;1.53;;
68050;SDS011;54839;51.364;7.246;2022-10-16T14:58:20;1.73;;;1.30;;
68050;SDS011;54839;51.364;7.246;2022-10-16T15:00:47;2.50;;;1.20;;
68050;SDS011;54839;51.364;7.246;2022-10-16T15:03:13;2.63;;;1.47;;
68050;SDS011;54839;51.364;7.246;2022-10-16T15:05:39;1.30;;;1.13;;
68050;SDS011;54839;51.364;7.246;2022-10-16T15:08:05;1.23;;;1.13;;
68050;SDS011;54839;51.364;7.246;2022-10-16T15:10:30;2.20;;;1.53;;
68050;SDS011;54839;51.364;7.246;2022-10-16T15:12:57;2.10;;;1.83;;
68050;SDS011;54839;51.364;7.246;2022-10-16T15:15:25;2.50;;;1.87;;
68050;SDS011;54839;51.364;7.246;2022-10-16T15:17:57;2.90;;;2.00;;
68050;SDS011;54839;51.364;7.246;2022-10-16T15:20:25;2.60;;;1.50;;
68050;SDS011;54839;51.364;7.246;2022-10-16T15:22:56;2.40;;;1.60;;
68050;SDS011;54839;51.364;7.246;2022-10-16T15:25:30;1.60;;;1.50;;
68050;SDS011;54839;51.364;7.246;2022-10-16T15:28:02;2.17;;;1.47;;
68050;SDS011;54839;51.364;7.246;2022-10-16T15:30:29;3.70;;;1.37;;
68050;SDS011;54839;51.364;7.246;2022-10-16T15:32:55;2.77;;;1.50;;
68050;SDS011;54839;51.364;7.246;2022-10-16T15:35:20;3.30;;;2.40;;
68050;SDS011;54839;51.364;7.246;2022-10-16T15:37:46;3.67;;;1.83;;
68050;SDS011;54839;51.364;7.246;2022-10-16T15:40:13;1.87;;;1.07;;
68050;SDS011;54839;51.364;7.246;2022-10-16T15:42:39;2.30;;;1.30;;
68050;SDS011;54839;51.364;7.246;2022-10-16T15:45:05;1.40;;;0.97;;
68050;SDS011;54839;51.364;7.246;2022-10-16T15:47:31;3.43;;;1.77;;
68050;SDS011;54839;51.364;7.246;2022-10-16T15:49:57;5.03;;;1.50;;
68050;SDS011;54839;51.364;7.246;2022-10-16T15:52:22;1.73;;;1.10;;
68050;SDS011;54839;51.364;7.246;2022-10-16T15:54:48;2.23;;;1.20;;
68050;SDS011;54839;51.364;7.246;2022-10-16T15:57:13;4.20;;;1.43;;
68050;SDS011;54839;51.364;7.246;2022-10-16T15:59:39;3.80;;;1.30;;
68050;SDS011;54839;51.364;7.246;2022-10-16T16:02:04;3.73;;;2.00;;
68050;SDS011;54839;51.364;7.246;2022-10-16T16:04:30;2.80;;;1.47;;
68050;SDS011;54839;51.364;7.246;2022-10-16T16:06:56;2.10;;;1.47;;
68050;SDS011;54839;51.364;7.246;2022-10-16T16:09:21;5.47;;;1.90;;
68050;SDS011;54839;51.364;7.246;2022-10-16T16:11:47;2.40;;;1.47;;
68050;SDS011;54839;51.364;7.246;2022-10-16T16:14:14;3.00;;;1.87;;
68050;SDS011;54839;51.364;7.246;2022-10-16T16:16:40;5.30;;;1.50;;
68050;SDS011;54839;51.364;7.246;2022-10-16T16:19:06;1.97;;;1.87;;
68050;SDS011;54839;51.364;7.246;2022-10-16T16:21:32;1.63;;;1.47;;
68050;SDS011;54839;51.364;7.246;2022-10-16T16:23:58;3.60;;;1.67;;
68050;SDS011;54839;51.364;7.246;2022-10-16T16:26:25;2.07;;;1.40;;
68050;SDS011;54839;51.364;7.246;2022-10-16T16:28:53;4.00;;;1.80;;